sensor_id;sensor_type;location;lat;lon;timestamp;pressure;altitude;pressure_sealevel;temperature;humidity
66703;BME280;60933;46.398;-63.798;2023-03-14T00:02:09;101901.97;;;-1.21;69.18
66703;BME280;60933;46.398;-63.798;2023-03-14T00:04:35;101896.66;;;-1.27;68.80
66703;BME280;60933;46.398;-63.798;2023-03-14T00:07:02;101888.81;;;-1.33;68.95
66703;BME280;60933;46.398;-63.798;2023-03-14T00:09:28;101886.81;;;-1.40;69.28
66703;BME280;60933;46.398;-63.798;2023-03-14T00:11:56;101881.50;;;-1.47;69.02
66703;BME280;60933;46.398;-63.798;2023-03-14T00:14:22;101876.81;;;-1.57;70.09
66703;BME280;60933;46.398;-63.798;2023-03-14T00:16:49;101879.00;;;-1.65;69.75
66703;BME280;60933;46.398;-63.798;2023-03-14T00:19:15;101881.28;;;-1.71;70.00
66703;BME280;60933;46.398;-63.798;2023-03-14T00:21:41;101883.53;;;-1.77;70.23
66703;BME280;60933;46.398;-63.798;2023-03-14T00:24:07;101889.28;;;-1.81;70.09
66703;BME280;60933;46.398;-63.798;2023-03-14T00:26:33;101887.41;;;-1.85;70.93
66703;BME280;60933;46.398;-63.798;2023-03-14T00:28:59;101888.88;;;-1.91;70.38
66703;BME280;60933;46.398;-63.798;2023-03-14T00:31:25;101882.66;;;-1.97;70.08
66703;BME280;60933;46.398;-63.798;2023-03-14T00:33:52;101882.53;;;-2.00;70.82
66703;BME280;60933;46.398;-63.798;2023-03-14T00:36:18;101884.84;;;-2.05;71.19
66703;BME280;60933;46.398;-63.798;2023-03-14T00:38:48;101885.59;;;-2.08;71.45
66703;BME280;60933;46.398;-63.798;2023-03-14T00:41:17;101879.56;;;-2.10;71.48
66703;BME280;60933;46.398;-63.798;2023-03-14T00:43:43;101874.47;;;-2.11;71.56
66703;BME280;60933;46.398;-63.798;2023-03-14T00:46:10;101839.34;;;-2.41;71.43
66703;BME280;60933;46.398;-63.798;2023-03-14T00:48:36;101867.38;;;-2.18;70.84
66703;BME280;60933;46.398;-63.798;2023-03-14T00:51:08;101869.81;;;-2.20;70.89
66703;BME280;60933;46.398;-63.798;2023-03-14T00:53:38;101861.28;;;-2.22;71.47
66703;BME280;60933;46.398;-63.798;2023-03-14T00:56:09;101857.69;;;-2.27;71.54
66703;BME280;60933;46.398;-63.798;2023-03-14T00:58:36;101856.91;;;-2.26;72.34
66703;BME280;60933;46.398;-63.798;2023-03-14T01:01:07;101861.97;;;-2.26;71.96
66703;BME280;60933;46.398;-63.798;2023-03-14T01:03:34;101861.97;;;-2.26;72.02
66703;BME280;60933;46.398;-63.798;2023-03-14T01:06:19;101855.97;;;-2.28;72.47
66703;BME280;60933;46.398;-63.798;2023-03-14T01:08:45;101854.22;;;-2.29;72.22
66703;BME280;60933;46.398;-63.798;2023-03-14T01:11:17;101860.94;;;-2.30;73.19
66703;BME280;60933;46.398;-63.798;2023-03-14T01:13:43;101858.28;;;-2.33;73.16
66703;BME280;60933;46.398;-63.798;2023-03-14T01:16:11;101850.63;;;-2.34;74.10
66703;BME280;60933;46.398;-63.798;2023-03-14T01:18:39;101851.41;;;-2.35;74.09
66703;BME280;60933;46.398;-63.798;2023-03-14T01:21:27;101854.72;;;-2.36;73.34
66703;BME280;60933;46.398;-63.798;2023-03-14T01:23:55;101859.78;;;-2.36;73.14
66703;BME280;60933;46.398;-63.798;2023-03-14T01:26:23;101869.91;;;-2.36;73.68
66703;BME280;60933;46.398;-63.798;2023-03-14T01:28:51;101862.31;;;-2.36;73.58
66703;BME280;60933;46.398;-63.798;2023-03-14T01:31:17;101865.53;;;-2.41;73.13
66703;BME280;60933;46.398;-63.798;2023-03-14T01:33:44;101863.63;;;-2.45;72.75
66703;BME280;60933;46.398;-63.798;2023-03-14T01:36:11;101867.25;;;-2.40;72.82
66703;BME280;60933;46.398;-63.798;2023-03-14T01:38:38;101857.66;;;-2.47;72.42
66703;BME280;60933;46.398;-63.798;2023-03-14T01:41:07;101868.84;;;-2.42;72.31
66703;BME280;60933;46.398;-63.798;2023-03-14T01:43:33;101864.63;;;-2.41;73.14
66703;BME280;60933;46.398;-63.798;2023-03-14T01:48:51;101867.09;;;-2.43;73.97
66703;BME280;60933;46.398;-63.798;2023-03-14T01:51:44;101872.09;;;-2.44;73.65
66703;BME280;60933;46.398;-63.798;2023-03-14T01:54:32;101867.81;;;-2.45;73.08
66703;BME280;60933;46.398;-63.798;2023-03-14T01:59:38;101872.72;;;-2.48;72.76
66703;BME280;60933;46.398;-63.798;2023-03-14T02:02:07;101874.34;;;-2.50;73.28
66703;BME280;60933;46.398;-63.798;2023-03-14T02:04:36;101881.84;;;-2.52;72.68
66703;BME280;60933;46.398;-63.798;2023-03-14T02:07:14;101873.00;;;-2.60;72.58
66703;BME280;60933;46.398;-63.798;2023-03-14T02:09:41;101876.66;;;-2.55;73.51
66703;BME280;60933;46.398;-63.798;2023-03-14T02:12:09;101884.97;;;-2.58;73.47
66703;BME280;60933;46.398;-63.798;2023-03-14T02:14:36;101874.69;;;-2.61;73.11
66703;BME280;60933;46.398;-63.798;2023-03-14T02:17:05;101878.00;;;-2.62;73.00
66703;BME280;60933;46.398;-63.798;2023-03-14T02:19:48;101879.69;;;-2.62;72.71
66703;BME280;60933;46.398;-63.798;2023-03-14T02:22:17;101875.34;;;-2.65;73.37
66703;BME280;60933;46.398;-63.798;2023-03-14T02:27:34;101877.56;;;-2.71;72.20
66703;BME280;60933;46.398;-63.798;2023-03-14T02:30:11;101880.09;;;-2.71;72.18
66703;BME280;60933;46.398;-63.798;2023-03-14T02:32:39;101875.69;;;-2.75;72.35
66703;BME280;60933;46.398;-63.798;2023-03-14T02:35:15;101888.28;;;-2.77;71.72
66703;BME280;60933;46.398;-63.798;2023-03-14T02:37:48;101888.09;;;-2.80;72.24
66703;BME280;60933;46.398;-63.798;2023-03-14T02:40:15;101882.09;;;-2.82;71.83
66703;BME280;60933;46.398;-63.798;2023-03-14T02:42:41;101883.72;;;-2.84;72.10
66703;BME280;60933;46.398;-63.798;2023-03-14T02:47:46;101891.94;;;-2.88;72.43
66703;BME280;60933;46.398;-63.798;2023-03-14T02:50:18;101895.41;;;-2.86;72.59
66703;BME280;60933;46.398;-63.798;2023-03-14T02:52:46;101896.25;;;-2.86;72.80
66703;BME280;60933;46.398;-63.798;2023-03-14T02:55:12;101893.72;;;-2.86;73.84
66703;BME280;60933;46.398;-63.798;2023-03-14T02:57:38;101887.75;;;-2.88;73.70
66703;BME280;60933;46.398;-63.798;2023-03-14T03:00:04;101887.66;;;-2.89;73.69
66703;BME280;60933;46.398;-63.798;2023-03-14T03:02:32;101887.66;;;-2.89;73.87
66703;BME280;60933;46.398;-63.798;2023-03-14T03:04:58;101880.88;;;-2.90;74.51
66703;BME280;60933;46.398;-63.798;2023-03-14T03:07:24;101876.47;;;-2.94;74.42
66703;BME280;60933;46.398;-63.798;2023-03-14T03:09:50;101882.38;;;-2.94;74.33
66703;BME280;60933;46.398;-63.798;2023-03-14T03:12:16;101869.50;;;-2.98;74.23
66703;BME280;60933;46.398;-63.798;2023-03-14T03:14:42;101884.13;;;-2.93;74.85
66703;BME280;60933;46.398;-63.798;2023-03-14T03:17:08;101878.22;;;-2.93;74.16
66703;BME280;60933;46.398;-63.798;2023-03-14T03:19:34;101883.31;;;-2.92;75.03
66703;BME280;60933;46.398;-63.798;2023-03-14T03:22:01;101879.84;;;-2.94;75.35
66703;BME280;60933;46.398;-63.798;2023-03-14T03:24:27;101869.84;;;-2.92;74.73
66703;BME280;60933;46.398;-63.798;2023-03-14T03:26:53;101872.38;;;-2.92;75.18
66703;BME280;60933;46.398;-63.798;2023-03-14T03:29:18;101874.91;;;-2.92;75.80
66703;BME280;60933;46.398;-63.798;2023-03-14T03:31:45;101874.00;;;-2.93;75.80
66703;BME280;60933;46.398;-63.798;2023-03-14T03:34:11;101872.28;;;-2.94;76.38
66703;BME280;60933;46.398;-63.798;2023-03-14T03:36:37;101860.84;;;-3.04;76.35
66703;BME280;60933;46.398;-63.798;2023-03-14T03:39:03;101869.50;;;-2.98;76.65
66703;BME280;60933;46.398;-63.798;2023-03-14T03:41:30;101867.81;;;-2.99;76.98
66703;BME280;60933;46.398;-63.798;2023-03-14T03:43:57;101870.91;;;-3.05;77.03
66703;BME280;60933;46.398;-63.798;2023-03-14T03:46:26;101871.91;;;-3.02;77.11
66703;BME280;60933;46.398;-63.798;2023-03-14T03:48:56;101860.84;;;-3.04;77.25
66703;BME280;60933;46.398;-63.798;2023-03-14T03:51:23;101871.84;;;-3.03;77.89
66703;BME280;60933;46.398;-63.798;2023-03-14T03:53:49;101862.44;;;-3.06;78.25
66703;BME280;60933;46.398;-63.798;2023-03-14T03:56:15;101868.31;;;-3.07;78.66
66703;BME280;60933;46.398;-63.798;2023-03-14T03:58:41;101867.25;;;-3.10;79.13
66703;BME280;60933;46.398;-63.798;2023-03-14T04:01:08;101867.25;;;-3.10;78.25
66703;BME280;60933;46.398;-63.798;2023-03-14T04:03:34;101867.19;;;-3.12;78.47
66703;BME280;60933;46.398;-63.798;2023-03-14T04:06:06;101859.38;;;-3.16;78.10
66703;BME280;60933;46.398;-63.798;2023-03-14T04:08:32;101864.53;;;-3.15;77.80
66703;BME280;60933;46.398;-63.798;2023-03-14T04:10:58;101867.84;;;-3.16;78.11
66703;BME280;60933;46.398;-63.798;2023-03-14T04:13:26;101856.56;;;-3.23;78.52
66703;BME280;60933;46.398;-63.798;2023-03-14T04:15:53;101858.38;;;-3.20;78.20
66703;BME280;60933;46.398;-63.798;2023-03-14T04:18:19;101854.91;;;-3.22;78.35
66703;BME280;60933;46.398;-63.798;2023-03-14T04:20:45;101852.28;;;-3.24;78.43
66703;BME280;60933;46.398;-63.798;2023-03-14T04:23:16;101843.84;;;-3.24;78.70
66703;BME280;60933;46.398;-63.798;2023-03-14T04:25:42;101838.75;;;-3.26;79.21
66703;BME280;60933;46.398;-63.798;2023-03-14T04:28:07;101834.38;;;-3.28;78.48
66703;BME280;60933;46.398;-63.798;2023-03-14T04:30:34;101842.75;;;-3.29;78.88
66703;BME280;60933;46.398;-63.798;2023-03-14T04:33:00;101831.72;;;-3.31;79.40
66703;BME280;60933;46.398;-63.798;2023-03-14T04:35:26;101827.47;;;-3.32;79.20
66703;BME280;60933;46.398;-63.798;2023-03-14T04:37:52;101825.66;;;-3.35;79.46
66703;BME280;60933;46.398;-63.798;2023-03-14T04:40:18;101824.69;;;-3.37;79.20
66703;BME280;60933;46.398;-63.798;2023-03-14T04:42:44;101824.63;;;-3.39;79.26
66703;BME280;60933;46.398;-63.798;2023-03-14T04:45:10;101830.41;;;-3.41;79.18
66703;BME280;60933;46.398;-63.798;2023-03-14T04:47:36;101833.63;;;-3.44;79.12
66703;BME280;60933;46.398;-63.798;2023-03-14T04:50:02;101826.69;;;-3.48;79.86
66703;BME280;60933;46.398;-63.798;2023-03-14T04:52:28;101835.78;;;-3.52;79.32
66703;BME280;60933;46.398;-63.798;2023-03-14T04:54:54;101833.88;;;-3.56;78.71
66703;BME280;60933;46.398;-63.798;2023-03-14T04:57:20;101830.97;;;-3.63;79.20
66703;BME280;60933;46.398;-63.798;2023-03-14T04:59:46;101827.50;;;-3.66;79.03
66703;BME280;60933;46.398;-63.798;2023-03-14T05:02:12;101833.31;;;-3.67;79.05
66703;BME280;60933;46.398;-63.798;2023-03-14T05:04:38;101828.94;;;-3.71;79.34
66703;BME280;60933;46.398;-63.798;2023-03-14T05:07:04;101818.53;;;-3.77;79.45
66703;BME280;60933;46.398;-63.798;2023-03-14T05:09:30;101829.41;;;-3.78;78.87
66703;BME280;60933;46.398;-63.798;2023-03-14T05:11:56;101829.22;;;-3.81;79.27
66703;BME280;60933;46.398;-63.798;2023-03-14T05:14:22;101819.63;;;-3.88;79.04
66703;BME280;60933;46.398;-63.798;2023-03-14T05:16:48;101822.91;;;-3.89;79.07
66703;BME280;60933;46.398;-63.798;2023-03-14T05:19:14;101826.88;;;-3.94;78.54
66703;BME280;60933;46.398;-63.798;2023-03-14T05:21:40;101819.06;;;-3.99;78.88
66703;BME280;60933;46.398;-63.798;2023-03-14T05:24:06;101814.00;;;-3.99;78.64
66703;BME280;60933;46.398;-63.798;2023-03-14T05:26:32;101812.22;;;-4.02;78.57
66703;BME280;60933;46.398;-63.798;2023-03-14T05:28:58;101803.69;;;-4.04;79.28
66703;BME280;60933;46.398;-63.798;2023-03-14T05:31:24;101802.72;;;-4.06;78.66
66703;BME280;60933;46.398;-63.798;2023-03-14T05:33:50;101798.50;;;-4.07;79.02
66703;BME280;60933;46.398;-63.798;2023-03-14T05:36:16;101797.69;;;-4.06;79.13
66703;BME280;60933;46.398;-63.798;2023-03-14T05:38:42;101795.97;;;-4.07;79.23
66703;BME280;60933;46.398;-63.798;2023-03-14T05:41:07;101791.72;;;-4.08;79.28
66703;BME280;60933;46.398;-63.798;2023-03-14T05:43:33;101785.88;;;-4.07;78.82
66703;BME280;60933;46.398;-63.798;2023-03-14T05:45:59;101779.09;;;-4.08;78.24
66703;BME280;60933;46.398;-63.798;2023-03-14T05:48:25;101779.09;;;-4.08;78.13
66703;BME280;60933;46.398;-63.798;2023-03-14T05:50:56;101774.84;;;-4.09;77.38
66703;BME280;60933;46.398;-63.798;2023-03-14T05:53:22;101763.19;;;-4.07;77.48
66703;BME280;60933;46.398;-63.798;2023-03-14T05:55:51;101744.28;;;-4.15;77.27
66703;BME280;60933;46.398;-63.798;2023-03-14T05:58:18;101758.28;;;-4.04;78.38
66703;BME280;60933;46.398;-63.798;2023-03-14T06:00:44;101754.19;;;-4.02;78.50
66703;BME280;60933;46.398;-63.798;2023-03-14T06:03:10;101754.19;;;-4.02;78.51
66703;BME280;60933;46.398;-63.798;2023-03-14T06:05:36;101756.78;;;-4.00;78.15
66703;BME280;60933;46.398;-63.798;2023-03-14T06:08:02;101755.16;;;-4.00;78.02
66703;BME280;60933;46.398;-63.798;2023-03-14T06:10:28;101756.06;;;-3.98;78.79
66703;BME280;60933;46.398;-63.798;2023-03-14T06:12:54;101752.69;;;-3.98;78.33
66703;BME280;60933;46.398;-63.798;2023-03-14T06:15:20;101740.94;;;-3.98;78.48
66703;BME280;60933;46.398;-63.798;2023-03-14T06:17:46;101733.38;;;-3.98;79.06
66703;BME280;60933;46.398;-63.798;2023-03-14T06:20:12;101736.78;;;-3.97;78.60
66703;BME280;60933;46.398;-63.798;2023-03-14T06:22:39;101739.28;;;-3.97;78.89
66703;BME280;60933;46.398;-63.798;2023-03-14T06:25:06;101751.19;;;-3.94;78.64
66703;BME280;60933;46.398;-63.798;2023-03-14T06:27:33;101750.41;;;-3.93;78.91
66703;BME280;60933;46.398;-63.798;2023-03-14T06:29:59;101747.88;;;-3.93;78.54
66703;BME280;60933;46.398;-63.798;2023-03-14T06:32:25;101753.88;;;-3.91;78.74
66703;BME280;60933;46.398;-63.798;2023-03-14T06:34:51;101751.38;;;-3.91;78.09
66703;BME280;60933;46.398;-63.798;2023-03-14T06:37:17;101742.06;;;-3.92;78.54
66703;BME280;60933;46.398;-63.798;2023-03-14T06:39:43;101742.06;;;-3.92;78.15
66703;BME280;60933;46.398;-63.798;2023-03-14T06:42:10;101726.75;;;-3.95;77.62
66703;BME280;60933;46.398;-63.798;2023-03-14T06:44:36;101735.34;;;-3.92;77.67
66703;BME280;60933;46.398;-63.798;2023-03-14T06:47:02;101747.94;;;-3.92;77.05
66703;BME280;60933;46.398;-63.798;2023-03-14T06:49:28;101739.53;;;-3.92;77.36
66703;BME280;60933;46.398;-63.798;2023-03-14T06:51:54;101732.88;;;-3.90;78.04
66703;BME280;60933;46.398;-63.798;2023-03-14T06:54:20;101745.50;;;-3.90;77.08
66703;BME280;60933;46.398;-63.798;2023-03-14T06:56:46;101738.66;;;-3.93;77.16
66703;BME280;60933;46.398;-63.798;2023-03-14T06:59:12;101737.88;;;-3.92;77.29
66703;BME280;60933;46.398;-63.798;2023-03-14T07:01:38;101740.44;;;-3.90;77.29
66703;BME280;60933;46.398;-63.798;2023-03-14T07:04:04;101736.22;;;-3.91;76.80
66703;BME280;60933;46.398;-63.798;2023-03-14T07:06:30;101723.63;;;-3.91;77.14
66703;BME280;60933;46.398;-63.798;2023-03-14T07:08:56;101711.69;;;-3.94;76.84
66703;BME280;60933;46.398;-63.798;2023-03-14T07:11:22;101700.56;;;-3.98;76.92
66703;BME280;60933;46.398;-63.798;2023-03-14T07:13:48;101708.13;;;-3.98;76.57
66703;BME280;60933;46.398;-63.798;2023-03-14T07:16:14;101714.78;;;-4.00;75.89
66703;BME280;60933;46.398;-63.798;2023-03-14T07:18:40;101718.72;;;-4.05;76.49
66703;BME280;60933;46.398;-63.798;2023-03-14T07:21:07;101725.34;;;-4.07;76.24
66703;BME280;60933;46.398;-63.798;2023-03-14T07:23:35;101723.38;;;-4.13;76.22
66703;BME280;60933;46.398;-63.798;2023-03-14T07:26:01;101735.28;;;-4.10;76.04
66703;BME280;60933;46.398;-63.798;2023-03-14T07:28:27;101730.06;;;-4.13;76.18
66703;BME280;60933;46.398;-63.798;2023-03-14T07:30:53;101738.44;;;-4.14;76.41
66703;BME280;60933;46.398;-63.798;2023-03-14T07:33:20;101741.66;;;-4.17;76.55
66703;BME280;60933;46.398;-63.798;2023-03-14T07:35:49;101745.84;;;-4.17;76.57
66703;BME280;60933;46.398;-63.798;2023-03-14T07:38:16;101744.09;;;-4.18;76.36
66703;BME280;60933;46.398;-63.798;2023-03-14T07:40:43;101747.72;;;-4.13;76.12
66703;BME280;60933;46.398;-63.798;2023-03-14T07:43:09;101740.31;;;-4.10;76.69
66703;BME280;60933;46.398;-63.798;2023-03-14T07:45:35;101735.34;;;-4.08;76.76
66703;BME280;60933;46.398;-63.798;2023-03-14T07:48:01;101735.44;;;-4.07;76.86
66703;BME280;60933;46.398;-63.798;2023-03-14T07:50:27;101721.09;;;-4.08;76.67
66703;BME280;60933;46.398;-63.798;2023-03-14T07:52:54;101718.28;;;-4.14;77.16
66703;BME280;60933;46.398;-63.798;2023-03-14T07:55:21;101736.38;;;-4.05;76.99
66703;BME280;60933;46.398;-63.798;2023-03-14T07:57:47;101741.41;;;-4.05;77.23
66703;BME280;60933;46.398;-63.798;2023-03-14T08:00:13;101743.88;;;-4.06;76.55
66703;BME280;60933;46.398;-63.798;2023-03-14T08:02:42;101738.09;;;-4.04;77.13
66703;BME280;60933;46.398;-63.798;2023-03-14T08:05:08;101732.09;;;-4.06;77.39
66703;BME280;60933;46.398;-63.798;2023-03-14T08:07:35;101729.53;;;-4.07;77.67
66703;BME280;60933;46.398;-63.798;2023-03-14T08:10:01;101732.03;;;-4.07;77.69
66703;BME280;60933;46.398;-63.798;2023-03-14T08:12:27;101738.75;;;-4.08;78.40
66703;BME280;60933;46.398;-63.798;2023-03-14T08:14:53;101742.84;;;-4.10;77.16
66703;BME280;60933;46.398;-63.798;2023-03-14T08:17:19;101748.59;;;-4.13;77.76
66703;BME280;60933;46.398;-63.798;2023-03-14T08:19:45;101721.09;;;-4.24;77.71
66703;BME280;60933;46.398;-63.798;2023-03-14T08:22:11;101746.78;;;-4.15;78.15
66703;BME280;60933;46.398;-63.798;2023-03-14T08:24:37;101745.84;;;-4.17;77.70
66703;BME280;60933;46.398;-63.798;2023-03-14T08:27:03;101745.84;;;-4.17;78.22
66703;BME280;60933;46.398;-63.798;2023-03-14T08:29:29;101753.22;;;-4.20;78.20
66703;BME280;60933;46.398;-63.798;2023-03-14T08:31:55;101762.53;;;-4.19;77.80
66703;BME280;60933;46.398;-63.798;2023-03-14T08:34:21;101758.38;;;-4.19;77.89
66703;BME280;60933;46.398;-63.798;2023-03-14T08:36:47;101765.16;;;-4.18;77.58
66703;BME280;60933;46.398;-63.798;2023-03-14T08:39:13;101765.94;;;-4.19;78.15
66703;BME280;60933;46.398;-63.798;2023-03-14T08:41:39;101772.78;;;-4.16;78.32
66703;BME280;60933;46.398;-63.798;2023-03-14T08:44:09;101771.06;;;-4.17;78.66
66703;BME280;60933;46.398;-63.798;2023-03-14T08:46:37;101756.41;;;-4.24;79.22
66703;BME280;60933;46.398;-63.798;2023-03-14T08:49:03;101777.66;;;-4.19;78.98
66703;BME280;60933;46.398;-63.798;2023-03-14T08:51:29;101779.22;;;-4.21;78.57
66703;BME280;60933;46.398;-63.798;2023-03-14T08:53:55;101769.00;;;-4.24;78.28
66703;BME280;60933;46.398;-63.798;2023-03-14T08:56:21;101762.22;;;-4.25;79.02
66703;BME280;60933;46.398;-63.798;2023-03-14T08:58:47;101757.81;;;-4.30;79.14
66703;BME280;60933;46.398;-63.798;2023-03-14T09:01:13;101752.59;;;-4.33;78.63
66703;BME280;60933;46.398;-63.798;2023-03-14T09:03:39;101749.91;;;-4.36;78.57
66703;BME280;60933;46.398;-63.798;2023-03-14T09:06:07;101737.16;;;-4.39;79.10
66703;BME280;60933;46.398;-63.798;2023-03-14T09:08:35;101743.84;;;-4.39;79.05
66703;BME280;60933;46.398;-63.798;2023-03-14T09:11:01;101741.25;;;-4.41;78.82
66703;BME280;60933;46.398;-63.798;2023-03-14T09:13:27;101740.22;;;-4.45;78.79
66703;BME280;60933;46.398;-63.798;2023-03-14T09:15:55;101729.91;;;-4.49;78.91
66703;BME280;60933;46.398;-63.798;2023-03-14T09:18:21;101731.56;;;-4.50;79.04
66703;BME280;60933;46.398;-63.798;2023-03-14T09:20:48;101734.69;;;-4.54;78.44
66703;BME280;60933;46.398;-63.798;2023-03-14T09:23:14;101732.81;;;-4.58;78.32
66703;BME280;60933;46.398;-63.798;2023-03-14T09:25:40;101731.78;;;-4.62;78.68
66703;BME280;60933;46.398;-63.798;2023-03-14T09:28:06;101729.88;;;-4.66;78.45
66703;BME280;60933;46.398;-63.798;2023-03-14T09:30:32;101723.91;;;-4.68;78.10
66703;BME280;60933;46.398;-63.798;2023-03-14T09:32:58;101725.47;;;-4.70;78.35
66703;BME280;60933;46.398;-63.798;2023-03-14T09:35:25;101728.84;;;-4.69;78.68
66703;BME280;60933;46.398;-63.798;2023-03-14T09:37:51;101727.09;;;-4.70;78.94
66703;BME280;60933;46.398;-63.798;2023-03-14T09:40:19;101726.41;;;-4.68;78.70
66703;BME280;60933;46.398;-63.798;2023-03-14T09:42:48;101728.13;;;-4.67;78.71
66703;BME280;60933;46.398;-63.798;2023-03-14T09:45:34;101718.22;;;-4.64;79.01
66703;BME280;60933;46.398;-63.798;2023-03-14T09:48:03;101714.22;;;-4.60;79.76
66703;BME280;60933;46.398;-63.798;2023-03-14T09:50:41;101717.69;;;-4.58;79.00
66703;BME280;60933;46.398;-63.798;2023-03-14T09:53:21;101719.50;;;-4.55;80.05
66703;BME280;60933;46.398;-63.798;2023-03-14T09:55:50;101724.63;;;-4.54;80.39
66703;BME280;60933;46.398;-63.798;2023-03-14T09:58:22;101724.78;;;-4.51;80.13
66703;BME280;60933;46.398;-63.798;2023-03-14T10:00:50;101723.91;;;-4.51;80.31
66703;BME280;60933;46.398;-63.798;2023-03-14T10:03:33;101718.72;;;-4.54;80.12
66703;BME280;60933;46.398;-63.798;2023-03-14T10:05:59;101720.78;;;-4.47;81.02
66703;BME280;60933;46.398;-63.798;2023-03-14T10:08:26;101710.63;;;-4.49;80.72
66703;BME280;60933;46.398;-63.798;2023-03-14T10:10:52;101721.63;;;-4.47;80.44
66703;BME280;60933;46.398;-63.798;2023-03-14T10:13:24;101712.25;;;-4.49;79.76
66703;BME280;60933;46.398;-63.798;2023-03-14T10:16:04;101719.28;;;-4.43;79.50
66703;BME280;60933;46.398;-63.798;2023-03-14T10:18:33;101713.34;;;-4.44;79.62
66703;BME280;60933;46.398;-63.798;2023-03-14T10:21:09;101715.25;;;-4.40;79.58
66703;BME280;60933;46.398;-63.798;2023-03-14T10:23:42;101712.75;;;-4.40;79.77
66703;BME280;60933;46.398;-63.798;2023-03-14T10:26:17;101716.22;;;-4.38;79.58
66703;BME280;60933;46.398;-63.798;2023-03-14T10:28:48;101703.69;;;-4.36;80.61
66703;BME280;60933;46.398;-63.798;2023-03-14T10:31:17;101708.00;;;-4.34;80.84
66703;BME280;60933;46.398;-63.798;2023-03-14T10:33:58;101709.75;;;-4.33;80.01
66703;BME280;60933;46.398;-63.798;2023-03-14T10:36:27;101716.53;;;-4.32;80.34
66703;BME280;60933;46.398;-63.798;2023-03-14T10:39:45;101713.28;;;-4.29;80.04
66703;BME280;60933;46.398;-63.798;2023-03-14T10:42:01;101712.66;;;-4.25;80.04
66703;BME280;60933;46.398;-63.798;2023-03-14T10:44:28;101717.16;;;-4.19;80.41
66703;BME280;60933;46.398;-63.798;2023-03-14T10:47:04;101718.28;;;-4.14;80.38
66703;BME280;60933;46.398;-63.798;2023-03-14T10:49:35;101710.91;;;-4.09;79.75
66703;BME280;60933;46.398;-63.798;2023-03-14T10:52:28;101715.47;;;-4.02;80.05
66703;BME280;60933;46.398;-63.798;2023-03-14T10:55:01;101709.03;;;-3.97;79.65
66703;BME280;60933;46.398;-63.798;2023-03-14T10:57:27;101709.41;;;-3.89;79.81
66703;BME280;60933;46.398;-63.798;2023-03-14T10:59:55;101696.94;;;-3.86;79.75
66703;BME280;60933;46.398;-63.798;2023-03-14T11:07:44;101718.63;;;-3.55;80.22
66703;BME280;60933;46.398;-63.798;2023-03-14T11:21:29;101702.19;;;-2.93;80.57
66703;BME280;60933;46.398;-63.798;2023-03-14T11:24:33;101699.41;;;-2.79;80.50
66703;BME280;60933;46.398;-63.798;2023-03-14T11:29:41;101701.25;;;-2.57;79.24
66703;BME280;60933;46.398;-63.798;2023-03-14T11:32:19;101704.84;;;-2.52;79.57
66703;BME280;60933;46.398;-63.798;2023-03-14T11:34:51;101719.38;;;-2.48;78.75
66703;BME280;60933;46.398;-63.798;2023-03-14T11:42:34;101714.84;;;-2.35;79.05
66703;BME280;60933;46.398;-63.798;2023-03-14T11:45:00;101716.94;;;-2.27;78.98
66703;BME280;60933;46.398;-63.798;2023-03-14T11:47:34;101705.53;;;-2.17;79.13
66703;BME280;60933;46.398;-63.798;2023-03-14T11:50:17;101708.53;;;-2.06;78.25
66703;BME280;60933;46.398;-63.798;2023-03-14T11:52:49;101718.31;;;-1.94;78.17
66703;BME280;60933;46.398;-63.798;2023-03-14T11:55:31;101720.47;;;-1.82;78.72
66703;BME280;60933;46.398;-63.798;2023-03-14T11:58:03;101711.66;;;-1.71;78.74
66703;BME280;60933;46.398;-63.798;2023-03-14T12:00:34;101706.13;;;-1.62;78.17
66703;BME280;60933;46.398;-63.798;2023-03-14T12:03:10;101711.38;;;-1.57;78.06
66703;BME280;60933;46.398;-63.798;2023-03-14T12:06:15;101714.34;;;-1.47;78.19
66703;BME280;60933;46.398;-63.798;2023-03-14T12:09:11;101703.88;;;-1.33;77.85
66703;BME280;60933;46.398;-63.798;2023-03-14T12:11:51;101706.13;;;-1.18;77.27
66703;BME280;60933;46.398;-63.798;2023-03-14T12:14:32;101716.75;;;-1.06;76.87
66703;BME280;60933;46.398;-63.798;2023-03-14T12:17:07;101713.75;;;-0.96;77.29
66703;BME280;60933;46.398;-63.798;2023-03-14T12:19:43;101712.47;;;-0.86;76.06
66703;BME280;60933;46.398;-63.798;2023-03-14T12:22:32;101713.53;;;-0.79;76.46
66703;BME280;60933;46.398;-63.798;2023-03-14T12:30:40;101695.25;;;-0.47;74.43
66703;BME280;60933;46.398;-63.798;2023-03-14T12:35:43;101688.41;;;-0.26;74.35
66703;BME280;60933;46.398;-63.798;2023-03-14T12:43:33;101672.56;;;-0.19;74.50
66703;BME280;60933;46.398;-63.798;2023-03-14T12:46:21;101664.34;;;-0.11;74.07
66703;BME280;60933;46.398;-63.798;2023-03-14T12:51:35;101648.25;;;0.14;73.37
66703;BME280;60933;46.398;-63.798;2023-03-14T12:57:06;101634.66;;;0.39;73.22
66703;BME280;60933;46.398;-63.798;2023-03-14T12:59:52;101624.97;;;0.55;73.58
66703;BME280;60933;46.398;-63.798;2023-03-14T13:18:13;101621.84;;;1.53;69.22
66703;BME280;60933;46.398;-63.798;2023-03-14T13:20:51;101614.59;;;1.67;68.92
66703;BME280;60933;46.398;-63.798;2023-03-14T13:23:29;101623.19;;;1.72;68.89
66703;BME280;60933;46.398;-63.798;2023-03-14T13:25:56;101612.44;;;1.83;68.20
66703;BME280;60933;46.398;-63.798;2023-03-14T13:28:24;101610.88;;;1.89;67.68
66703;BME280;60933;46.398;-63.798;2023-03-14T13:30:58;101616.34;;;2.05;67.44
66703;BME280;60933;46.398;-63.798;2023-03-14T13:33:26;101608.78;;;2.07;66.99
66703;BME280;60933;46.398;-63.798;2023-03-14T13:35:57;101608.97;;;2.16;66.94
66703;BME280;60933;46.398;-63.798;2023-03-14T13:38:29;101616.72;;;2.20;66.60
66703;BME280;60933;46.398;-63.798;2023-03-14T13:40:56;101610.91;;;2.26;66.20
66703;BME280;60933;46.398;-63.798;2023-03-14T13:43:41;101617.13;;;2.37;66.06
66703;BME280;60933;46.398;-63.798;2023-03-14T13:46:22;101619.16;;;2.52;65.35
66703;BME280;60933;46.398;-63.798;2023-03-14T13:48:57;101624.38;;;2.59;65.19
66703;BME280;60933;46.398;-63.798;2023-03-14T13:51:24;101619.13;;;2.91;64.81